aviador You're here:

KBTL Decoded Metar

BATTLE CREEK in MI, USA
Report Time2017-06-24 00:53:00
UTC Time2017-06-24 01:44:10
Flight Rules vfr VFR
Wind250° at 05 kt
W.Decomp.*RWY 23: 4.6 kt HW 2.0 kt RCW
RWY 31: 2.8 kt HW 4.1 kt LCW
W.Rank250° ranks 13
Current wind is below 250° avg. (9.6)
Visibility9999 m
Phenomena:N/A
Clouds:N/A
Expected CloudBase > 2,800 ft AGL from Temp-Dew spread
CeilingNone
Temp20°C (ISA +7)
Dew Point13°C (64% RH)
AAT19.1°C
QNH1006 hPa
Density Alt2,195 ft
Elevation951 ft
Report Wrong Elevation
Raw Report
METAR KBTL 240053Z 25005KT 10SM CLR 20/13 A2972 RMK AO2 SLP057 T02000128=

Extra information for KBTL:More info

Metar Taf Metar & Taf Last 4 Metars F.Rules Stats Wind Profile Meteogram Temp Stats Airport Information Weather charts Add Link Nearby VenuesMetar ALERT Operation Metar Decoded Social comments

AIRNAV info for KBTL